Time;durP1;ratioP1;P1;durP2;ratioP2;P2;SDS_P1;SDS_P2;PMS_P1;PMS_P2;Temp;Humidity;BMP_temperature;BMP_pressure;BME280_temperature;BME280_humidity;BME280_pressure;Samples;Min_cycle;Max_cycle;Signal;HPM_P1;HPM_P2
2021/12/06 00:00:26;;;;;;;57.70;29.77;;;;;;;4.44;75.11;97989.13;4357802;32;34945;-87
2021/12/06 00:02:58;;;;;;;58.92;29.67;;;;;;;4.59;74.30;97991.97;4366366;32;34075;-87
2021/12/06 00:05:26;;;;;;;50.42;27.42;;;;;;;4.68;73.83;97998.94;4350255;32;32738;-85
2021/12/06 00:07:54;;;;;;;53.78;29.10;;;;;;;4.74;73.54;98001.63;4352717;32;34350;-86
2021/12/06 00:10:21;;;;;;;57.92;29.92;;;;;;;4.53;74.54;98012.37;4371956;32;34297;-86
2021/12/06 00:12:49;;;;;;;55.22;28.60;;;;;;;4.26;75.72;98008.47;4375921;32;34374;-86
2021/12/06 00:15:16;;;;;;;51.50;28.08;;;;;;;4.52;74.71;98008.94;4362031;32;33377;-85
2021/12/06 00:17:44;;;;;;;54.55;28.60;;;;;;;4.76;73.69;98016.22;4366809;32;33729;-87
2021/12/06 00:20:13;;;;;;;53.85;28.45;;;;;;;4.64;74.10;98028.84;4347666;32;34184;-86
2021/12/06 00:22:41;;;;;;;53.47;28.77;;;;;;;4.76;73.40;98007.66;4368023;32;33826;-83
2021/12/06 00:25:09;;;;;;;49.97;27.83;;;;;;;4.60;73.75;98009.94;4360475;32;33591;-86
2021/12/06 00:27:39;;;;;;;46.97;25.77;;;;;;;4.65;74.21;98004.87;4368435;32;34893;-83
2021/12/06 00:30:11;;;;;;;46.17;27.02;;;;;;;4.48;74.72;97999.47;4353019;32;34797;-86
2021/12/06 00:32:40;;;;;;;50.97;26.87;;;;;;;4.74;73.96;98002.50;4347608;32;34399;-85
2021/12/06 00:35:12;;;;;;;45.03;26.48;;;;;;;4.88;72.99;97998.44;4347452;32;33769;-87
2021/12/06 00:37:53;;;;;;;50.05;26.17;;;;;;;4.70;74.08;98010.09;4355572;32;34591;-84
2021/12/06 00:40:21;;;;;;;47.17;26.75;;;;;;;4.85;73.35;98013.81;4349450;32;33836;-85
2021/12/06 00:42:48;;;;;;;48.85;27.17;;;;;;;4.36;75.22;98017.22;4369742;32;34806;-84
2021/12/06 00:45:16;;;;;;;48.10;25.77;;;;;;;4.77;73.98;98002.56;4355718;32;33082;-86
2021/12/06 00:47:44;;;;;;;47.88;25.98;;;;;;;4.65;74.05;98012.59;4349613;32;34008;-87
2021/12/06 00:50:12;;;;;;;48.65;27.10;;;;;;;4.78;73.54;98017.13;4366182;32;35012;-85
2021/12/06 00:52:39;;;;;;;45.72;26.02;;;;;;;4.74;73.70;98024.75;4350420;32;33561;-84
2021/12/06 00:55:09;;;;;;;46.20;26.05;;;;;;;4.96;73.07;98023.38;4361832;32;33809;-87
2021/12/06 00:57:38;;;;;;;48.17;26.30;;;;;;;5.08;72.56;98024.47;4361713;32;33909;-86
2021/12/06 01:00:12;;;;;;;46.00;23.95;;;;;;;5.05;72.67;98018.41;4361072;32;33765;-87
2021/12/06 01:02:43;;;;;;;43.60;25.70;;;;;;;4.79;73.54;98031.66;4365251;32;33795;-84
2021/12/06 01:05:11;;;;;;;42.65;25.17;;;;;;;4.91;73.18;98036.16;4358734;32;34220;-84
2021/12/06 01:07:38;;;;;;;42.10;24.70;;;;;;;5.00;72.93;98032.84;4347011;32;33910;-85
2021/12/06 01:10:08;;;;;;;41.95;24.50;;;;;;;5.23;71.60;98018.72;4352076;32;35222;-82
2021/12/06 01:12:36;;;;;;;40.63;24.00;;;;;;;4.82;73.07;98003.47;4359713;32;34829;-86
2021/12/06 01:15:07;;;;;;;38.95;23.92;;;;;;;4.79;73.44;98000.00;4365606;32;33767;-86
2021/12/06 01:17:35;;;;;;;41.78;23.33;;;;;;;4.79;73.97;97993.16;4361794;32;34060;-85
2021/12/06 01:20:08;;;;;;;40.67;24.10;;;;;;;4.93;73.37;97998.53;4354230;32;34688;-83
2021/12/06 01:22:47;;;;;;;41.10;22.67;;;;;;;5.00;73.07;98007.19;4376004;32;33677;-86
2021/12/06 01:30:49;;;;;;;47.22;26.48;;;;;;;4.90;72.98;98013.88;4371696;32;35102;-86
2021/12/06 01:41:36;;;;;;;41.05;22.77;;;;;;;4.89;73.18;98009.59;4360026;32;35232;-87
2021/12/06 01:44:20;;;;;;;34.38;22.67;;;;;;;4.76;73.39;98005.06;4359855;32;34624;-84
2021/12/06 01:46:52;;;;;;;43.10;23.87;;;;;;;4.65;73.06;98010.03;4361924;32;34222;-87
2021/12/06 01:49:22;;;;;;;41.35;23.52;;;;;;;3.89;75.98;98012.84;4368404;32;33905;-87
2021/12/06 01:51:51;;;;;;;45.10;24.42;;;;;;;4.26;74.00;98013.59;4349652;32;34204;-83
2021/12/06 01:54:19;;;;;;;43.28;25.65;;;;;;;3.71;75.65;98012.47;4363590;32;33154;-85
2021/12/06 01:56:49;;;;;;;45.58;25.45;;;;;;;3.83;75.46;98007.62;4352296;32;33876;-86
2021/12/06 01:59:17;;;;;;;45.42;27.70;;;;;;;3.57;76.14;98013.91;4360387;32;34699;-88
2021/12/06 02:01:45;;;;;;;44.78;26.37;;;;;;;3.20;76.30;98025.88;4368778;32;34242;-83
2021/12/06 02:04:13;;;;;;;44.90;25.55;;;;;;;3.43;76.35;98028.97;4373700;32;34830;-87
2021/12/06 02:06:43;;;;;;;43.13;26.62;;;;;;;2.95;77.77;98021.84;4370061;32;33494;-84
2021/12/06 02:09:12;;;;;;;46.47;26.37;;;;;;;2.98;77.48;98016.81;4367395;32;33891;-83
2021/12/06 02:11:42;;;;;;;41.15;24.95;;;;;;;3.13;77.36;98013.75;4364821;32;34331;-86
2021/12/06 02:17:37;;;;;;;41.35;24.63;;;;;;;3.68;74.43;98002.19;4367152;32;33423;-86
2021/12/06 02:19:47;;;;;;;37.97;24.50;;;;;;;3.28;75.98;97998.72;4354302;32;34780;-86
2021/12/06 02:22:21;;;;;;;36.40;23.62;;;;;;;3.61;74.53;98000.31;4355929;32;34196;-86
2021/12/06 02:24:52;;;;;;;38.53;23.92;;;;;;;2.86;77.00;97989.22;4357377;32;33597;-88
2021/12/06 02:27:22;;;;;;;36.40;22.67;;;;;;;3.30;76.17;97998.78;4357836;32;33699;-87
2021/12/06 02:29:52;;;;;;;36.13;23.42;;;;;;;3.68;74.77;97999.62;4360286;32;33769;-83
2021/12/06 02:32:20;;;;;;;36.10;21.92;;;;;;;3.40;75.13;97995.56;4354618;32;34256;-87
2021/12/06 02:34:51;;;;;;;35.88;22.55;;;;;;;3.53;75.28;97994.16;4360204;32;33676;-84
2021/12/06 02:37:23;;;;;;;37.40;22.15;;;;;;;3.26;75.78;97995.28;4360569;32;33969;-85
2021/12/06 02:40:01;;;;;;;39.25;23.15;;;;;;;3.07;76.73;98008.47;4367794;32;33815;-85
2021/12/06 02:42:30;;;;;;;36.58;21.98;;;;;;;3.13;76.86;97998.38;4373388;32;34274;-85
2021/12/06 02:44:57;;;;;;;32.25;21.35;;;;;;;3.25;76.01;97995.22;4357440;32;33058;-84
2021/12/06 02:47:24;;;;;;;33.97;20.80;;;;;;;3.42;75.63;98004.19;4355880;32;33651;-82
2021/12/06 02:49:52;;;;;;;30.95;20.50;;;;;;;3.22;76.36;98011.41;4351487;32;34798;-87
2021/12/06 02:52:20;;;;;;;34.13;20.58;;;;;;;3.22;76.23;98011.41;4367937;32;33913;-89
2021/12/06 02:54:55;;;;;;;29.85;20.10;;;;;;;3.84;73.81;98013.63;4367448;32;34154;-87
2021/12/06 02:57:33;;;;;;;;;;;;;;;3.34;75.54;98010.84;4355162;32;33245;-89
2021/12/06 03:00:07;;;;;;;27.33;17.33;;;;;;;3.79;73.42;98016.09;4358963;32;34921;-85
2021/12/06 03:02:35;;;;;;;30.05;19.60;;;;;;;3.49;74.58;98015.44;4363921;32;34117;-85
2021/12/06 03:05:03;;;;;;;30.33;19.58;;;;;;;3.37;75.48;98026.25;4347138;32;33987;-86
2021/12/06 03:07:36;;;;;;;29.85;18.52;;;;;;;3.22;75.77;98034.47;4334450;32;32813;-89
2021/12/06 03:10:08;;;;;;;30.62;19.85;;;;;;;3.07;76.21;98031.50;4359563;32;33280;-89
2021/12/06 03:12:35;;;;;;;32.53;19.48;;;;;;;2.82;76.57;98028.38;4354958;32;34621;-87
2021/12/06 03:15:05;;;;;;;28.73;18.50;;;;;;;3.22;75.90;98021.66;4359785;32;34417;-88
2021/12/06 03:17:34;;;;;;;29.70;18.48;;;;;;;3.10;75.54;98022.22;4359555;32;34238;-88
2021/12/06 03:20:04;;;;;;;28.58;18.23;;;;;;;2.74;77.28;98022.19;4343184;32;33193;-86
2021/12/06 03:22:33;;;;;;;28.62;17.80;;;;;;;2.93;76.43;98026.09;4347888;32;34093;-85
2021/12/06 03:25:06;;;;;;;30.15;18.67;;;;;;;3.19;75.91;98036.94;4335780;32;33301;-86
2021/12/06 03:27:33;;;;;;;29.45;18.83;;;;;;;2.85;77.01;98035.28;4365624;32;33281;-86
2021/12/06 03:30:02;;;;;;;27.52;17.23;;;;;;;2.90;77.36;98041.34;4374122;32;33819;-84
2021/12/06 03:32:29;;;;;;;28.92;17.65;;;;;;;2.54;78.65;98031.03;4361419;32;33965;-85
2021/12/06 03:34:57;;;;;;;28.55;17.80;;;;;;;3.11;76.10;98028.22;4361550;32;34525;-85
2021/12/06 03:37:25;;;;;;;27.67;17.55;;;;;;;2.86;76.94;98037.84;4346568;32;32976;-85
2021/12/06 03:39:53;;;;;;;25.80;16.87;;;;;;;3.16;76.00;98042.84;4358193;32;33672;-86
2021/12/06 03:42:23;;;;;;;25.98;16.77;;;;;;;3.44;74.79;98037.50;4363774;32;34210;-87
2021/12/06 03:44:52;;;;;;;28.62;18.60;;;;;;;3.18;75.13;98048.00;4375902;32;35139;-87
2021/12/06 03:47:27;;;;;;;29.55;17.33;;;;;;;2.97;76.11;98050.06;4351140;32;34216;-87
2021/12/06 03:49:57;;;;;;;26.23;17.00;;;;;;;3.15;75.78;98046.25;4362422;32;32534;-87
2021/12/06 03:52:24;;;;;;;28.35;17.73;;;;;;;2.93;76.65;98044.88;4353362;32;33670;-87
2021/12/06 03:54:53;;;;;;;27.95;17.92;;;;;;;2.71;76.98;98032.34;4342223;32;33752;-84
2021/12/06 03:57:22;;;;;;;27.77;17.80;;;;;;;2.91;76.78;98037.97;4372505;32;33450;-89
2021/12/06 03:59:51;;;;;;;27.05;18.60;;;;;;;2.82;76.81;98041.16;4348865;32;34214;-85
2021/12/06 04:02:22;;;;;;;28.42;18.58;;;;;;;2.80;76.66;98037.69;4370095;32;33883;-84
2021/12/06 04:04:51;;;;;;;26.00;17.23;;;;;;;2.66;77.48;98041.63;4361872;32;33600;-88
2021/12/06 04:07:21;;;;;;;26.33;17.58;;;;;;;2.88;76.71;98043.03;4369714;32;33390;-86
2021/12/06 04:09:49;;;;;;;24.45;16.27;;;;;;;2.66;76.90;98029.69;4351834;32;34836;-83
2021/12/06 04:12:18;;;;;;;24.60;16.83;;;;;;;2.82;76.56;98030.94;4348208;32;34075;-88
2021/12/06 04:14:47;;;;;;;28.27;16.50;;;;;;;2.62;78.06;98029.56;4365966;32;33828;-87
2021/12/06 04:17:16;;;;;;;25.88;16.55;;;;;;;2.61;77.72;98030.38;4367714;32;34419;-85
2021/12/06 04:19:44;;;;;;;27.35;16.95;;;;;;;3.26;74.67;98027.69;4346283;32;33891;-86
2021/12/06 04:22:12;;;;;;;24.02;15.73;;;;;;;2.49;77.90;98042.84;4361320;32;34777;-86
2021/12/06 04:24:40;;;;;;;25.92;17.00;;;;;;;2.75;76.76;98044.41;4352017;32;32866;-87
2021/12/06 04:27:15;;;;;;;23.33;15.40;;;;;;;2.37;78.17;98044.25;4352751;32;34223;-88
2021/12/06 04:29:46;;;;;;;23.73;16.30;;;;;;;2.46;78.18;98053.00;4365968;32;34831;-86
2021/12/06 04:32:14;;;;;;;28.80;17.27;;;;;;;2.52;77.69;98058.28;4369405;32;35119;-87
2021/12/06 04:34:42;;;;;;;26.02;16.40;;;;;;;2.81;76.76;98051.38;4368782;32;34071;-86
2021/12/06 04:37:11;;;;;;;26.95;17.20;;;;;;;2.41;78.52;98048.63;4347399;32;33715;-87
2021/12/06 04:39:39;;;;;;;25.75;15.75;;;;;;;2.30;78.61;98047.47;4335698;32;33929;-88
2021/12/06 04:42:09;;;;;;;27.27;17.20;;;;;;;2.20;79.25;98053.19;4347482;32;34287;-88
2021/12/06 04:44:37;;;;;;;25.45;15.90;;;;;;;2.31;78.59;98041.56;4369497;32;32783;-89
2021/12/06 04:47:06;;;;;;;25.10;15.77;;;;;;;2.30;79.05;98044.06;4362628;32;35005;-87
2021/12/06 04:49:33;;;;;;;26.70;17.08;;;;;;;2.50;77.92;98057.37;4361081;32;33901;-88
2021/12/06 04:52:05;;;;;;;29.37;16.35;;;;;;;2.31;78.58;98063.69;4371081;32;34904;-88
2021/12/06 04:54:36;;;;;;;24.58;15.27;;;;;;;2.42;78.49;98069.97;4375247;32;33486;-88
2021/12/06 04:57:21;;;;;;;24.23;15.90;;;;;;;2.60;76.95;98069.59;4350556;32;33903;-86
2021/12/06 04:59:53;;;;;;;23.62;14.65;;;;;;;2.37;78.75;98067.28;4360970;32;34797;-86
2021/12/06 05:02:26;;;;;;;26.05;15.90;;;;;;;2.57;77.50;98072.06;4360479;32;35436;-89
2021/12/06 05:04:57;;;;;;;23.38;15.73;;;;;;;2.21;78.62;98070.25;4347370;32;33188;-88
2021/12/06 05:07:31;;;;;;;28.05;17.73;;;;;;;2.64;77.53;98077.38;4371740;32;33608;-88
2021/12/06 05:09:58;;;;;;;27.95;18.45;;;;;;;2.72;77.13;98080.13;4370126;32;34560;-87
2021/12/06 05:12:29;;;;;;;28.62;18.55;;;;;;;2.50;77.76;98078.72;4375026;32;35071;-86
2021/12/06 05:14:57;;;;;;;31.75;19.00;;;;;;;3.01;75.58;98083.47;4369211;32;34676;-88
2021/12/06 05:17:25;;;;;;;27.73;18.25;;;;;;;2.37;77.89;98092.84;4359064;32;34456;-87
2021/12/06 05:19:54;;;;;;;30.70;19.30;;;;;;;3.07;74.87;98088.75;4358818;32;33443;-86
2021/12/06 05:22:22;;;;;;;31.00;19.27;;;;;;;2.53;77.67;98093.28;4374535;32;35199;-84
2021/12/06 05:24:50;;;;;;;28.58;18.70;;;;;;;2.63;76.98;98098.69;4375373;32;34171;-86
2021/12/06 05:27:23;;;;;;;30.77;18.62;;;;;;;2.92;75.95;98099.47;4360941;32;34406;-86
2021/12/06 05:29:56;;;;;;;32.03;19.33;;;;;;;2.71;76.79;98103.16;4374848;32;33572;-87
2021/12/06 05:32:26;;;;;;;27.75;17.50;;;;;;;2.95;75.64;98095.22;4375433;32;34836;-86
2021/12/06 05:35:04;;;;;;;28.90;17.45;;;;;;;2.37;77.70;98104.78;4372442;32;34830;-85
2021/12/06 05:37:34;;;;;;;30.92;18.95;;;;;;;3.06;75.57;98104.03;4360694;32;33266;-88
2021/12/06 05:40:04;;;;;;;27.50;17.00;;;;;;;3.38;73.91;98100.59;4360735;32;33924;-89
2021/12/06 05:42:31;;;;;;;24.85;16.02;;;;;;;3.38;73.82;98100.59;4334910;32;34097;-88
2021/12/06 05:44:59;;;;;;;25.35;16.60;;;;;;;3.37;73.38;98093.75;4361613;32;33879;-89
2021/12/06 05:47:26;;;;;;;26.45;17.30;;;;;;;3.30;74.38;98097.00;4362258;32;33483;-89
2021/12/06 05:49:54;;;;;;;28.00;17.48;;;;;;;3.62;73.54;98099.44;4353176;32;33709;-86
2021/12/06 05:52:22;;;;;;;31.35;17.90;;;;;;;3.51;73.46;98095.75;4375992;32;34086;-86
2021/12/06 05:54:49;;;;;;;28.15;16.95;;;;;;;3.43;74.10;98098.13;4372493;32;35440;-87
2021/12/06 05:57:17;;;;;;;29.25;19.08;;;;;;;3.79;72.24;98098.13;4360542;32;34219;-83
2021/12/06 05:59:44;;;;;;;29.58;17.83;;;;;;;3.45;73.95;98105.84;4368894;32;33934;-86
2021/12/06 06:02:12;;;;;;;30.35;18.85;;;;;;;3.23;74.45;98107.03;4355612;32;35138;-83
2021/12/06 06:04:41;;;;;;;25.67;16.65;;;;;;;3.59;73.30;98109.59;4353033;32;34932;-86
2021/12/06 06:07:09;;;;;;;34.22;20.30;;;;;;;3.52;73.12;98112.84;4375751;32;33220;-86
2021/12/06 06:09:37;;;;;;;31.42;19.35;;;;;;;2.78;76.05;98123.81;4366000;32;34697;-85
2021/12/06 06:12:05;;;;;;;37.25;22.17;;;;;;;2.59;76.98;98136.94;4359372;32;34821;-84
2021/12/06 06:14:32;;;;;;;32.17;19.55;;;;;;;2.66;77.18;98138.84;4367831;32;34124;-87
2021/12/06 06:17:13;;;;;;;34.33;20.50;;;;;;;2.79;76.22;98135.78;4375147;32;34297;-86
2021/12/06 06:19:48;;;;;;;33.35;19.77;;;;;;;2.82;76.53;98138.44;4373504;32;33898;-89
2021/12/06 06:22:15;;;;;;;36.33;21.35;;;;;;;2.72;77.22;98146.69;4375465;32;33816;-87
2021/12/06 06:24:43;;;;;;;34.92;20.67;;;;;;;2.99;75.99;98148.25;4361739;32;34600;-85
2021/12/06 06:27:11;;;;;;;36.88;20.42;;;;;;;2.85;76.28;98148.75;4369835;32;33578;-84
2021/12/06 06:29:44;;;;;;;34.08;20.33;;;;;;;3.11;75.50;98146.03;4347080;32;33973;-87
2021/12/06 06:32:12;;;;;;;34.42;19.87;;;;;;;3.30;74.60;98144.78;4360604;32;35177;-84
2021/12/06 06:34:39;;;;;;;36.33;20.27;;;;;;;3.08;75.92;98146.81;4346863;32;33992;-85
2021/12/06 06:37:07;;;;;;;33.25;19.48;;;;;;;3.14;75.98;98156.31;4368413;32;33239;-84
2021/12/06 06:39:34;;;;;;;36.75;21.30;;;;;;;2.79;76.75;98161.38;4361217;32;33946;-88
2021/12/06 06:42:02;;;;;;;39.05;21.35;;;;;;;2.89;76.49;98163.38;4373966;32;34442;-84
2021/12/06 06:44:30;;;;;;;35.72;20.83;;;;;;;2.71;77.24;98168.00;4374729;32;34066;-85
2021/12/06 06:46:57;;;;;;;36.53;21.00;;;;;;;3.09;76.02;98171.56;4374037;32;33292;-84
2021/12/06 06:49:25;;;;;;;42.47;22.27;;;;;;;3.20;75.33;98171.00;4374843;32;33844;-86
2021/12/06 06:51:53;;;;;;;40.35;23.17;;;;;;;2.84;76.93;98185.44;4374851;32;33742;-87
2021/12/06 06:54:20;;;;;;;44.15;23.58;;;;;;;2.84;77.24;98188.00;4374786;32;33960;-88
2021/12/06 06:56:47;;;;;;;41.28;23.40;;;;;;;2.47;78.58;98201.44;4353138;32;33033;-88
2021/12/06 06:59:15;;;;;;;45.88;24.55;;;;;;;2.27;79.15;98198.25;4360490;32;33902;-84
2021/12/06 07:01:45;;;;;;;41.53;23.27;;;;;;;2.47;79.06;98213.34;4359913;32;34939;-88
2021/12/06 07:04:14;;;;;;;41.28;22.37;;;;;;;2.71;78.06;98203.81;4362910;32;35650;-85
2021/12/06 07:06:42;;;;;;;42.17;24.67;;;;;;;3.17;76.19;98211.06;4374174;32;33347;-84
2021/12/06 07:09:10;;;;;;;49.33;26.50;;;;;;;2.81;77.06;98210.94;4363535;32;34715;-83
2021/12/06 07:11:37;;;;;;;46.58;25.00;;;;;;;3.06;76.96;98219.28;4346774;32;35010;-82
2021/12/06 07:14:05;;;;;;;48.78;26.70;;;;;;;2.99;76.88;98218.22;4358052;32;33643;-84
2021/12/06 07:16:32;;;;;;;48.90;25.45;;;;;;;2.73;77.55;98220.09;4362956;32;33551;-83
2021/12/06 07:19:00;;;;;;;52.65;28.42;;;;;;;3.10;76.28;98228.78;4360746;32;33712;-85
2021/12/06 07:21:48;;;;;;;51.90;28.30;;;;;;;3.23;76.19;98230.84;4354847;32;34902;-87
2021/12/06 07:24:15;;;;;;;58.92;30.52;;;;;;;3.08;76.18;98227.88;4361380;32;33523;-86
2021/12/06 07:26:43;;;;;;;55.22;30.12;;;;;;;2.53;78.95;98239.97;4367926;32;34188;-86
2021/12/06 07:29:10;;;;;;;50.17;27.70;;;;;;;2.48;79.00;98238.97;4365585;32;33886;-86
2021/12/06 07:31:38;;;;;;;52.13;30.40;;;;;;;3.06;76.41;98230.38;4361541;32;34289;-88
2021/12/06 07:34:05;;;;;;;53.80;28.42;;;;;;;3.51;75.02;98231.56;4373684;32;33702;-83
2021/12/06 07:36:33;;;;;;;54.47;29.45;;;;;;;3.06;76.21;98234.63;4375963;32;33223;-84
2021/12/06 07:39:01;;;;;;;59.25;30.90;;;;;;;3.17;76.37;98239.22;4376736;32;33795;-85
2021/12/06 07:41:29;;;;;;;57.38;30.60;;;;;;;2.94;77.59;98237.72;4349012;32;35572;-86
2021/12/06 07:43:58;;;;;;;61.85;30.75;;;;;;;3.05;77.07;98230.34;4354395;32;34691;-86
2021/12/06 07:46:25;;;;;;;63.35;32.38;;;;;;;3.44;75.62;98243.34;4341507;32;33810;-84
2021/12/06 07:48:53;;;;;;;63.08;31.98;;;;;;;2.97;76.98;98244.62;4360932;32;34397;-82
2021/12/06 07:51:25;;;;;;;61.92;32.55;;;;;;;2.88;78.08;98246.13;4363887;32;35138;-85
2021/12/06 07:53:53;;;;;;;73.35;35.08;;;;;;;3.07;77.49;98246.59;4369206;32;34069;-81
2021/12/06 07:56:23;;;;;;;65.65;33.58;;;;;;;3.25;76.59;98247.09;4359272;32;33844;-83
2021/12/06 07:58:50;;;;;;;68.25;34.38;;;;;;;3.17;76.56;98243.47;4350497;32;34384;-82
2021/12/06 08:01:18;;;;;;;69.50;35.65;;;;;;;2.78;78.18;98241.56;4361060;32;35108;-84
2021/12/06 08:03:46;;;;;;;72.15;35.80;;;;;;;2.90;78.01;98244.47;4361918;32;33945;-88
2021/12/06 08:06:14;;;;;;;76.18;36.13;;;;;;;2.48;79.66;98248.34;4339504;32;34398;-89
2021/12/06 08:08:43;;;;;;;74.12;37.45;;;;;;;2.83;78.81;98242.53;4360663;32;32264;-86
2021/12/06 08:11:14;;;;;;;72.45;35.83;;;;;;;2.87;78.87;98239.25;4362723;32;35030;-89
2021/12/06 08:13:44;;;;;;;79.10;37.53;;;;;;;2.72;79.46;98255.84;4368058;32;33951;-86
2021/12/06 08:16:15;;;;;;;73.00;37.38;;;;;;;2.88;78.68;98245.25;4346743;32;33430;-84
2021/12/06 08:18:44;;;;;;;73.15;33.92;;;;;;;2.75;79.21;98244.03;4359771;32;35068;-88
2021/12/06 08:21:13;;;;;;;72.93;37.22;;;;;;;2.98;78.39;98247.22;4357611;32;33716;-83
2021/12/06 08:23:41;;;;;;;81.90;35.28;;;;;;;2.74;78.65;98252.53;4362292;32;33081;-83
2021/12/06 08:26:10;;;;;;;70.22;36.00;;;;;;;2.92;77.79;98257.31;4376014;32;33691;-85
2021/12/06 08:28:39;;;;;;;64.62;33.95;;;;;;;2.60;78.96;98259.78;4375984;32;34659;-85
2021/12/06 08:31:07;;;;;;;70.22;35.70;;;;;;;2.27;80.76;98264.75;4374321;32;34956;-85
2021/12/06 08:33:35;;;;;;;70.78;35.75;;;;;;;2.74;79.70;98273.00;4362979;32;33406;-84
2021/12/06 08:36:05;;;;;;;66.80;34.85;;;;;;;2.74;79.66;98278.13;4366331;32;33449;-91
2021/12/06 08:38:34;;;;;;;69.22;35.55;;;;;;;3.03;78.09;98275.50;4361116;32;34634;-90
2021/12/06 08:41:07;;;;;;;71.50;36.55;;;;;;;2.88;79.24;98287.09;4361323;32;35108;-91
2021/12/06 08:43:36;;;;;;;69.20;37.00;;;;;;;2.81;79.59;98284.31;4360687;32;34044;-90
2021/12/06 08:46:12;;;;;;;67.57;33.97;;;;;;;2.41;80.51;98296.75;4360200;32;34506;-86
2021/12/06 08:48:40;;;;;;;62.22;34.00;;;;;;;2.58;80.20;98289.59;4346577;32;34052;-89
2021/12/06 08:51:19;;;;;;;68.80;35.05;;;;;;;2.44;81.12;98301.97;4360812;32;34602;-87
2021/12/06 08:53:47;;;;;;;58.90;32.22;;;;;;;3.03;78.77;98289.22;4334517;32;33355;-85
2021/12/06 08:56:15;;;;;;;60.53;31.30;;;;;;;3.04;78.34;98290.06;4360008;32;33127;-88
2021/12/06 08:58:42;;;;;;;60.60;32.00;;;;;;;2.84;78.99;98290.38;4346727;32;33792;-89
2021/12/06 09:01:11;;;;;;;59.30;31.67;;;;;;;2.88;78.87;98289.62;4347900;32;32857;-90
2021/12/06 09:03:58;;;;;;;53.03;28.92;;;;;;;3.02;79.31;98296.84;4375155;32;33644;-91
2021/12/06 09:06:26;;;;;;;50.25;29.30;;;;;;;2.85;80.36;98299.78;4373511;32;33988;-89
2021/12/06 09:08:55;;;;;;;47.80;28.15;;;;;;;2.66;80.71;98293.25;4374562;32;35060;-85
2021/12/06 09:11:22;;;;;;;52.62;28.23;;;;;;;2.37;81.75;98297.47;4374825;32;33638;-91
2021/12/06 09:13:50;;;;;;;50.83;29.52;;;;;;;2.55;81.42;98286.09;4373035;32;34691;-86
2021/12/06 09:16:17;;;;;;;46.00;27.30;;;;;;;2.77;81.18;98288.47;4363930;32;32330;-91
2021/12/06 09:18:45;;;;;;;40.63;25.62;;;;;;;2.82;80.60;98286.03;4359631;32;33810;-87
2021/12/06 09:21:17;;;;;;;43.40;25.12;;;;;;;2.90;80.22;98280.28;4348947;32;33898;-86
2021/12/06 09:23:45;;;;;;;44.15;26.83;;;;;;;2.72;80.89;98273.78;4374764;32;33917;-87
2021/12/06 09:26:13;;;;;;;43.60;27.08;;;;;;;3.17;79.43;98267.41;4361217;32;34242;-85
2021/12/06 09:28:41;;;;;;;39.53;26.48;;;;;;;3.21;79.26;98259.81;4358798;32;33099;-92
2021/12/06 09:31:09;;;;;;;40.05;25.70;;;;;;;2.78;80.95;98256.06;4359699;32;34286;-90
2021/12/06 09:33:38;;;;;;;41.72;25.88;;;;;;;2.72;81.35;98251.59;4359597;32;34038;-87
2021/12/06 09:36:06;;;;;;;42.33;26.02;;;;;;;2.67;81.06;98245.50;4349579;32;33410;-90
2021/12/06 09:38:39;;;;;;;39.55;25.35;;;;;;;2.80;80.69;98247.56;4354732;32;35095;-88
2021/12/06 09:41:23;;;;;;;41.03;26.00;;;;;;;2.88;80.68;98251.25;4333923;32;34891;-90
2021/12/06 09:43:54;;;;;;;39.28;25.65;;;;;;;3.44;78.64;98255.28;4364695;32;81667;-86
2021/12/06 09:46:21;;;;;;;40.97;26.95;;;;;;;2.89;80.25;98252.09;4360660;32;33595;-90
2021/12/06 09:48:50;;;;;;;39.78;27.00;;;;;;;3.02;79.85;98256.72;4375739;32;34243;-89
2021/12/06 09:51:22;;;;;;;42.65;27.50;;;;;;;3.05;80.43;98266.19;4361637;32;33609;-87
2021/12/06 09:53:50;;;;;;;42.60;26.70;;;;;;;2.64;81.21;98263.31;4361722;32;33173;-84
2021/12/06 09:56:24;;;;;;;39.22;26.65;;;;;;;3.55;78.32;98251.31;4361939;32;33167;-88
2021/12/06 09:58:52;;;;;;;39.78;27.33;;;;;;;3.36;79.02;98252.53;4362178;32;33645;-90
2021/12/06 10:01:25;;;;;;;42.80;27.80;;;;;;;3.14;79.31;98251.97;4361727;32;34024;-88
2021/12/06 10:03:57;;;;;;;40.17;27.02;;;;;;;3.23;79.12;98238.53;4362049;32;33582;-90
2021/12/06 10:06:26;;;;;;;41.75;27.20;;;;;;;3.27;79.72;98240.34;4361857;32;33417;-89
2021/12/06 10:08:55;;;;;;;38.80;26.85;;;;;;;2.91;81.21;98230.81;4349450;32;33226;-86
2021/12/06 10:11:25;;;;;;;40.42;26.20;;;;;;;3.06;80.66;98225.25;4361926;32;34992;-86
2021/12/06 10:13:54;;;;;;;36.83;25.73;;;;;;;3.15;79.84;98222.97;4361770;32;34073;-85
2021/12/06 10:16:23;;;;;;;38.65;25.37;;;;;;;2.98;80.92;98236.12;4362356;32;33061;-86
2021/12/06 10:18:51;;;;;;;38.35;26.92;;;;;;;3.10;79.90;98233.91;4375557;32;33919;-85
2021/12/06 10:21:20;;;;;;;37.03;27.30;;;;;;;3.13;80.22;98236.53;4375461;32;33884;-89
2021/12/06 10:23:48;;;;;;;39.63;26.92;;;;;;;3.35;79.73;98236.28;4375124;32;34066;-90
2021/12/06 10:26:17;;;;;;;34.88;24.70;;;;;;;3.52;78.95;98236.72;4375527;32;33339;-87
2021/12/06 10:28:44;;;;;;;34.35;25.37;;;;;;;3.38;78.88;98228.69;4361667;32;33995;-86
2021/12/06 10:31:14;;;;;;;36.92;25.65;;;;;;;3.16;79.41;98226.38;4375475;32;34157;-90
2021/12/06 10:33:45;;;;;;;38.50;27.98;;;;;;;3.26;79.65;98227.47;4361688;32;33982;-84
2021/12/06 10:36:15;;;;;;;37.38;27.00;;;;;;;3.65;78.56;98227.66;4361771;32;33297;-90
2021/12/06 10:38:52;;;;;;;35.05;24.80;;;;;;;3.32;79.26;98243.03;4375164;32;34858;-90
2021/12/06 10:41:22;;;;;;;33.13;22.90;;;;;;;3.72;77.78;98257.75;4361991;32;34194;-86
2021/12/06 10:43:56;;;;;;;33.97;24.30;;;;;;;3.48;78.50;98264.78;4361370;32;33852;-86
2021/12/06 10:46:25;;;;;;;35.28;25.33;;;;;;;3.43;78.34;98287.72;4375347;32;33651;-89
2021/12/06 10:48:59;;;;;;;34.80;25.10;;;;;;;3.14;79.63;98304.84;4374911;32;33569;-85
2021/12/06 10:51:31;;;;;;;36.60;26.42;;;;;;;3.24;79.98;98311.97;4361290;32;32746;-88
2021/12/06 10:54:30;;;;;;;32.28;23.33;;;;;;;3.44;79.30;98314.22;4364294;32;34632;-90
2021/12/06 10:57:02;;;;;;;35.85;25.27;;;;;;;3.58;78.92;98318.03;4364742;32;34449;-88
2021/12/06 10:59:34;;;;;;;32.88;24.30;;;;;;;3.09;79.93;98322.66;4363923;32;33822;-85
2021/12/06 11:02:08;;;;;;;32.67;24.25;;;;;;;3.46;79.43;98317.72;4363582;32;33783;-87
2021/12/06 11:04:37;;;;;;;33.90;25.42;;;;;;;3.69;78.23;98316.63;4363206;32;33762;-84
2021/12/06 11:07:06;;;;;;;37.38;25.83;;;;;;;3.27;79.72;98306.09;4377047;32;32798;-89
2021/12/06 11:09:39;;;;;;;37.33;27.27;;;;;;;3.57;78.79;98311.19;4363518;32;33615;-85
2021/12/06 11:12:08;;;;;;;36.15;25.60;;;;;;;3.55;77.96;98302.56;4363393;32;34416;-88
2021/12/06 11:14:39;;;;;;;32.67;24.12;;;;;;;3.44;78.93;98306.53;4376745;32;35019;-90
2021/12/06 11:17:11;;;;;;;29.27;21.92;;;;;;;3.39;78.80;98306.41;4362762;32;34108;-85
2021/12/06 11:19:39;;;;;;;28.10;22.70;;;;;;;3.72;76.84;98320.97;4376838;32;34040;-85
2021/12/06 11:22:10;;;;;;;30.55;21.25;;;;;;;3.56;77.29;98310.31;4363104;32;34025;-85
2021/12/06 11:24:40;;;;;;;27.92;21.42;;;;;;;3.69;77.49;98326.88;4363169;32;34785;-85
2021/12/06 11:27:24;;;;;;;26.73;21.23;;;;;;;3.70;77.98;98331.16;4363152;32;33797;-89
2021/12/06 11:30:05;;;;;;;28.30;21.60;;;;;;;3.76;77.35;98323.63;4363076;32;32848;-90
2021/12/06 11:32:42;;;;;;;28.92;20.05;;;;;;;3.66;77.91;98331.91;4376643;32;34957;-91
2021/12/06 11:35:16;;;;;;;27.62;19.87;;;;;;;3.72;77.43;98341.47;4363046;32;33312;-90
2021/12/06 11:37:48;;;;;;;24.95;19.77;;;;;;;3.93;77.17;98336.00;4362961;32;33217;-90
2021/12/06 11:40:26;;;;;;;26.35;19.87;;;;;;;3.77;77.40;98339.87;4362848;32;33886;-86
2021/12/06 11:43:00;;;;;;;26.45;20.12;;;;;;;3.99;76.83;98338.75;4376666;32;34258;-91
2021/12/06 11:45:40;;;;;;;26.98;21.17;;;;;;;4.06;75.83;98338.09;4376525;32;33852;-89
2021/12/06 11:48:12;;;;;;;25.83;19.98;;;;;;;3.85;77.38;98336.69;4376477;32;33506;-85
2021/12/06 11:50:46;;;;;;;26.58;20.35;;;;;;;4.17;76.48;98340.88;4362720;32;33774;-88
2021/12/06 11:53:16;;;;;;;26.65;21.62;;;;;;;4.15;76.73;98343.44;4376546;32;35109;-86
2021/12/06 11:56:17;;;;;;;27.37;20.55;;;;;;;4.14;76.81;98336.56;4376612;32;34456;-89